createdAt,value
2018-10-18T00:00:44.932Z,43.53
2018-10-18T00:03:13.411Z,44.20
2018-10-18T00:05:41.820Z,44.23
2018-10-18T00:08:10.381Z,41.43
2018-10-18T00:10:38.659Z,41.73
2018-10-18T00:13:07.059Z,44.07
2018-10-18T00:15:35.445Z,41.97
2018-10-18T00:18:04.313Z,42.47
2018-10-18T00:20:33.958Z,44.93
2018-10-18T00:23:02.406Z,43.93
2018-10-18T00:25:30.797Z,43.03
2018-10-18T00:27:59.233Z,44.03
2018-10-18T00:30:27.638Z,43.37
2018-10-18T00:32:56.185Z,45.07
2018-10-18T00:35:24.628Z,44.90
2018-10-18T00:37:53.075Z,45.60
2018-10-18T00:40:21.477Z,44.80
2018-10-18T00:42:50.102Z,46.03
2018-10-18T00:45:18.659Z,46.80
2018-10-18T00:47:47.205Z,46.23
2018-10-18T00:50:15.694Z,45.17
2018-10-18T00:52:44.036Z,47.63
2018-10-18T00:55:12.603Z,48.07
2018-10-18T00:57:41.893Z,48.93
2018-10-18T01:00:11.468Z,46.60
2018-10-18T01:02:39.785Z,47.00
2018-10-18T01:05:08.302Z,46.67
2018-10-18T01:07:36.914Z,46.67
2018-10-18T01:10:05.408Z,48.17
2018-10-18T01:12:33.867Z,46.57
2018-10-18T01:15:02.441Z,46.63
2018-10-18T01:17:30.882Z,47.87
2018-10-18T01:19:59.310Z,47.33
2018-10-18T01:22:28.643Z,46.43
2018-10-18T01:24:57.064Z,49.73
2018-10-18T01:27:25.534Z,49.00
2018-10-18T01:29:53.961Z,48.73
2018-10-18T01:32:22.357Z,47.40
2018-10-18T01:34:50.828Z,47.40
2018-10-18T01:37:19.254Z,47.60
2018-10-18T01:39:47.840Z,51.17
2018-10-18T01:42:16.331Z,47.60
2018-10-18T01:44:52.318Z,50.70
2018-10-18T01:47:20.771Z,48.70
2018-10-18T01:49:49.294Z,48.77
2018-10-18T01:52:17.681Z,47.17
2018-10-18T01:54:46.286Z,48.40
2018-10-18T01:57:14.779Z,46.87
2018-10-18T01:59:43.222Z,47.40
2018-10-18T02:02:11.677Z,47.70
2018-10-18T02:04:40.141Z,47.10
2018-10-18T02:07:08.591Z,46.23
2018-10-18T02:09:37.022Z,44.67
2018-10-18T02:12:06.405Z,45.03
2018-10-18T02:14:34.725Z,46.27
2018-10-18T02:17:03.153Z,47.10
2018-10-18T02:19:31.670Z,47.40
2018-10-18T02:22:00.078Z,46.03
2018-10-18T02:24:28.518Z,46.33
2018-10-18T02:26:56.914Z,45.17
2018-10-18T02:29:25.373Z,44.70
2018-10-18T02:31:53.822Z,44.97
2018-10-18T02:34:22.213Z,43.67
2018-10-18T02:36:50.651Z,44.50
2018-10-18T02:39:19.106Z,41.60
2018-10-18T02:41:47.543Z,42.77
2018-10-18T02:44:16.073Z,43.13
2018-10-18T02:46:44.474Z,42.70
2018-10-18T02:49:12.901Z,44.80
2018-10-18T02:51:41.325Z,43.70
2018-10-18T02:54:09.879Z,43.67
2018-10-18T02:56:38.221Z,41.90
2018-10-18T02:59:06.718Z,41.83
2018-10-18T03:01:35.158Z,42.40
2018-10-18T03:04:03.599Z,40.17
2018-10-18T03:06:32.041Z,41.97
2018-10-18T03:09:00.573Z,43.33
2018-10-18T03:11:29.022Z,41.40
2018-10-18T03:13:57.754Z,43.50
2018-10-18T03:16:26.162Z,42.70
2018-10-18T03:18:54.669Z,41.17
2018-10-18T03:21:23.075Z,44.00
2018-10-18T03:23:51.532Z,43.17
2018-10-18T03:26:19.948Z,44.17
2018-10-18T03:28:48.403Z,47.50
2018-10-18T03:31:16.923Z,46.33
2018-10-18T03:33:45.310Z,45.40
2018-10-18T03:36:13.829Z,50.10
2018-10-18T03:38:42.175Z,49.17
2018-10-18T03:41:10.616Z,51.73
2018-10-18T03:43:39.045Z,51.53
2018-10-18T03:46:07.469Z,53.73
2018-10-18T03:48:35.942Z,53.93
2018-10-18T03:51:04.367Z,54.43
2018-10-18T03:53:32.821Z,55.33
2018-10-18T03:56:01.277Z,53.47
2018-10-18T03:58:29.677Z,56.07
2018-10-18T04:00:58.083Z,56.83
2018-10-18T04:03:26.589Z,59.60
2018-10-18T04:05:55.140Z,60.73
2018-10-18T04:08:23.542Z,60.07
2018-10-18T04:10:51.974Z,61.17
2018-10-18T04:13:20.452Z,62.07
2018-10-18T04:15:48.869Z,63.63
2018-10-18T04:18:17.266Z,63.23
2018-10-18T04:20:45.690Z,65.53
2018-10-18T04:23:18.242Z,66.70
2018-10-18T04:25:46.681Z,74.03
2018-10-18T04:28:15.046Z,68.27
2018-10-18T04:30:43.449Z,66.00
2018-10-18T04:33:11.822Z,61.80
2018-10-18T04:35:40.261Z,66.30
2018-10-18T04:38:08.682Z,65.80
2018-10-18T04:40:37.107Z,65.03
2018-10-18T04:43:05.906Z,65.13
2018-10-18T04:45:34.337Z,63.50
2018-10-18T04:48:02.909Z,65.57
2018-10-18T04:50:31.204Z,66.27
2018-10-18T04:52:59.575Z,68.00
2018-10-18T04:55:28.043Z,64.77
2018-10-18T04:57:56.444Z,67.23
2018-10-18T05:00:25.220Z,65.40
2018-10-18T05:02:53.666Z,56.07
2018-10-18T05:06:02.243Z,51.83
2018-10-18T05:08:30.906Z,49.53
2018-10-18T05:10:59.329Z,45.03
2018-10-18T05:13:27.869Z,45.40
2018-10-18T05:15:56.268Z,41.80
2018-10-18T05:18:24.994Z,41.40
2018-10-18T05:20:53.398Z,40.00
2018-10-18T05:23:21.833Z,40.43
2018-10-18T05:25:50.861Z,41.77
2018-10-18T05:28:19.462Z,39.67
2018-10-18T05:30:47.917Z,40.50
2018-10-18T05:33:16.301Z,41.40
2018-10-18T05:35:44.757Z,38.67
2018-10-18T05:38:13.150Z,38.60
2018-10-18T05:40:41.545Z,39.67
2018-10-18T05:43:10.029Z,39.90
2018-10-18T05:45:38.409Z,39.70
2018-10-18T05:48:07.402Z,41.23
2018-10-18T05:50:35.828Z,40.50
2018-10-18T05:53:04.303Z,40.97
2018-10-18T05:55:32.710Z,40.07
2018-10-18T05:58:01.080Z,39.90
2018-10-18T06:00:29.515Z,39.47
2018-10-18T06:02:57.938Z,40.53
2018-10-18T06:05:26.357Z,40.33
2018-10-18T06:07:54.749Z,40.30
2018-10-18T06:10:34.521Z,41.37
2018-10-18T06:13:02.890Z,39.80
2018-10-18T06:15:31.254Z,39.63
2018-10-18T06:17:59.664Z,40.07
2018-10-18T06:20:28.107Z,38.63
2018-10-18T06:22:57.724Z,39.27
2018-10-18T06:25:25.981Z,39.70
2018-10-18T06:27:54.389Z,40.53
2018-10-18T06:30:22.769Z,38.33
2018-10-18T06:32:51.204Z,39.47
2018-10-18T06:35:19.633Z,39.20
2018-10-18T06:37:48.157Z,37.57
2018-10-18T06:40:17.820Z,36.27
2018-10-18T06:42:46.248Z,38.20
2018-10-18T06:45:16.059Z,37.63
2018-10-18T06:47:44.844Z,36.47
2018-10-18T06:50:20.548Z,35.47
2018-10-18T06:52:49.078Z,34.50
2018-10-18T06:55:17.605Z,37.90
2018-10-18T06:58:18.409Z,36.40
2018-10-18T07:00:46.829Z,36.20
2018-10-18T07:03:15.322Z,37.47
2018-10-18T07:05:43.717Z,37.47
2018-10-18T07:08:12.180Z,36.70
2018-10-18T07:10:40.609Z,35.93
2018-10-18T07:13:09.046Z,37.13
2018-10-18T07:15:37.589Z,38.23
2018-10-18T07:18:06.195Z,37.80
2018-10-18T07:20:34.529Z,37.30
2018-10-18T07:23:02.966Z,38.17
2018-10-18T07:25:31.326Z,36.80
2018-10-18T07:27:59.774Z,37.20
2018-10-18T07:30:28.177Z,34.97
2018-10-18T07:32:57.253Z,38.23
2018-10-18T07:35:25.880Z,36.63
2018-10-18T07:37:54.347Z,36.43
2018-10-18T07:40:22.818Z,35.73
2018-10-18T07:42:51.336Z,36.07
2018-10-18T07:45:19.719Z,35.73
2018-10-18T07:47:49.003Z,35.27
2018-10-18T07:55:53.826Z,35.50
2018-10-18T07:58:22.379Z,35.47
2018-10-18T08:00:51.033Z,37.63
2018-10-18T08:03:19.444Z,36.57
2018-10-18T08:05:47.818Z,37.07
2018-10-18T08:08:16.228Z,36.53
2018-10-18T08:10:44.614Z,35.60
2018-10-18T08:13:13.305Z,36.30
2018-10-18T08:15:41.613Z,36.90
2018-10-18T08:18:10.250Z,35.43
2018-10-18T08:20:38.890Z,38.20
2018-10-18T08:23:07.494Z,37.20
2018-10-18T08:25:36.122Z,37.07
2018-10-18T08:28:04.577Z,36.10
2018-10-18T08:30:33.001Z,37.60
2018-10-18T08:33:01.458Z,37.50
2018-10-18T08:35:29.862Z,39.30
2018-10-18T08:37:58.668Z,39.87
2018-10-18T08:40:27.033Z,38.47
2018-10-18T08:42:55.486Z,38.40
2018-10-18T08:45:23.977Z,39.83
2018-10-18T08:47:52.478Z,39.67
2018-10-18T08:50:20.938Z,38.67
2018-10-18T08:52:55.408Z,37.73
2018-10-18T08:55:24.678Z,37.53
2018-10-18T08:57:53.511Z,37.77
2018-10-18T09:00:22.674Z,38.57
2018-10-18T09:02:51.255Z,38.73
2018-10-18T09:05:21.925Z,40.27
2018-10-18T09:07:52.030Z,36.97
2018-10-18T09:10:22.299Z,37.80
2018-10-18T09:12:50.728Z,37.40
2018-10-18T09:15:19.890Z,37.03
2018-10-18T09:17:49.304Z,37.33
2018-10-18T09:20:20.102Z,39.63
2018-10-18T09:22:50.778Z,36.63
2018-10-18T09:25:19.351Z,37.03
2018-10-18T09:27:47.905Z,37.10
2018-10-18T09:30:17.321Z,35.87
2018-10-18T09:32:46.845Z,36.53
2018-10-18T09:35:15.948Z,35.77
2018-10-18T09:37:44.945Z,36.40
2018-10-18T09:40:13.490Z,38.03
2018-10-18T09:42:41.905Z,34.50
2018-10-18T09:45:12.362Z,35.73
2018-10-18T09:47:44.457Z,35.57
2018-10-18T09:50:15.778Z,37.03
2018-10-18T09:52:46.825Z,36.73
2018-10-18T09:55:15.974Z,35.20
2018-10-18T09:57:44.283Z,36.77
2018-10-18T10:00:18.050Z,37.00
2018-10-18T10:02:49.522Z,36.43
2018-10-18T10:05:18.146Z,36.47
2018-10-18T10:07:46.816Z,32.03
2018-10-18T10:10:15.214Z,33.47
2018-10-18T10:12:50.209Z,33.67
2018-10-18T10:15:18.640Z,32.47
2018-10-18T10:17:47.204Z,32.87
2018-10-18T10:20:15.551Z,32.03
2018-10-18T10:22:43.994Z,33.77
2018-10-18T10:25:12.510Z,32.13
2018-10-18T10:27:40.858Z,28.83
2018-10-18T10:30:09.754Z,29.20
2018-10-18T10:32:38.166Z,29.50
2018-10-18T10:35:08.096Z,28.57
2018-10-18T10:37:36.589Z,31.67
2018-10-18T10:40:05.997Z,32.07
2018-10-18T10:42:34.382Z,32.80
2018-10-18T10:45:02.898Z,31.97
2018-10-18T10:47:38.425Z,31.13
2018-10-18T10:50:07.416Z,30.43
2018-10-18T10:52:36.298Z,32.90
2018-10-18T10:55:05.015Z,31.37
2018-10-18T10:57:35.453Z,30.67
2018-10-18T11:00:04.052Z,30.77
2018-10-18T11:02:32.442Z,32.20
2018-10-18T11:05:00.842Z,30.20
2018-10-18T11:07:29.406Z,31.53
2018-10-18T11:09:58.028Z,30.63
2018-10-18T11:12:26.454Z,32.07
2018-10-18T11:14:54.852Z,31.53
2018-10-18T11:17:23.250Z,31.53
2018-10-18T11:19:51.743Z,32.20
2018-10-18T11:22:20.137Z,31.70
2018-10-18T11:24:48.639Z,32.10
2018-10-18T11:27:16.990Z,32.93
2018-10-18T11:29:45.397Z,31.77
2018-10-18T11:32:17.271Z,30.70
2018-10-18T11:34:45.628Z,29.60
2018-10-18T11:37:14.333Z,29.00
2018-10-18T11:39:42.765Z,29.13
2018-10-18T11:42:11.255Z,26.20
2018-10-18T11:44:41.797Z,27.63
2018-10-18T11:47:12.424Z,27.50
2018-10-18T11:49:41.483Z,27.10
2018-10-18T11:52:09.895Z,28.63
2018-10-18T11:54:38.309Z,26.97
2018-10-18T11:57:06.735Z,27.40
2018-10-18T11:59:35.166Z,26.70
2018-10-18T12:02:03.790Z,25.63
2018-10-18T12:04:32.178Z,26.03
2018-10-18T12:07:00.577Z,26.43
2018-10-18T12:09:28.990Z,24.60
2018-10-18T12:11:57.385Z,27.47
2018-10-18T12:14:25.849Z,26.03
2018-10-18T12:16:54.292Z,24.70
2018-10-18T12:19:22.721Z,26.33
2018-10-18T12:21:56.702Z,24.10
2018-10-18T12:24:25.153Z,24.83
2018-10-18T12:26:53.630Z,26.03
2018-10-18T12:29:22.051Z,26.57
2018-10-18T12:31:51.919Z,27.27
2018-10-18T12:34:20.362Z,28.03
2018-10-18T12:36:48.776Z,29.13
2018-10-18T12:39:17.230Z,29.60
2018-10-18T12:41:45.766Z,31.67
2018-10-18T12:44:14.248Z,30.30
2018-10-18T12:46:43.056Z,31.10
2018-10-18T12:49:12.467Z,33.17
2018-10-18T12:51:40.881Z,32.20
2018-10-18T12:54:09.623Z,30.80
2018-10-18T12:56:38.076Z,30.63
2018-10-18T12:59:06.513Z,31.27
2018-10-18T13:01:34.933Z,31.87
2018-10-18T13:04:03.421Z,33.33
2018-10-18T13:06:31.858Z,32.40
2018-10-18T13:09:00.263Z,30.50
2018-10-18T13:11:28.686Z,31.77
2018-10-18T13:13:57.114Z,31.23
2018-10-18T13:16:25.561Z,30.13
2018-10-18T13:18:54.011Z,29.37
2018-10-18T13:21:22.430Z,30.00
2018-10-18T13:23:50.907Z,29.50
2018-10-18T13:26:19.443Z,29.67
2018-10-18T13:28:47.829Z,28.13
2018-10-18T13:31:16.525Z,29.30
2018-10-18T13:33:45.101Z,27.80
2018-10-18T13:36:13.733Z,28.17
2018-10-18T13:38:42.201Z,27.57
2018-10-18T13:41:10.692Z,27.43
2018-10-18T13:43:39.144Z,25.57
2018-10-18T13:46:07.615Z,24.03
2018-10-18T13:48:36.026Z,17.80
2018-10-18T13:51:05.334Z,16.47
2018-10-18T13:53:38.533Z,16.20
2018-10-18T13:56:07.104Z,16.70
2018-10-18T13:58:35.554Z,17.67
2018-10-18T14:01:04.001Z,16.50
2018-10-18T14:03:32.415Z,15.67
2018-10-18T14:06:00.909Z,15.90
2018-10-18T14:08:29.490Z,15.27
2018-10-18T14:10:57.793Z,14.93
2018-10-18T14:13:26.346Z,15.13
2018-10-18T14:15:54.839Z,14.77
2018-10-18T14:18:23.357Z,13.60
2018-10-18T14:20:51.905Z,13.53
2018-10-18T14:23:20.489Z,13.77
2018-10-18T14:25:48.818Z,13.13
2018-10-18T14:28:17.233Z,14.57
2018-10-18T14:30:45.699Z,13.50
2018-10-18T14:33:14.086Z,14.57
2018-10-18T14:35:42.514Z,14.87
2018-10-18T14:38:11.013Z,14.43
2018-10-18T14:40:39.400Z,14.37
2018-10-18T14:43:07.800Z,23.50
2018-10-18T14:45:37.249Z,15.63
2018-10-18T14:48:06.701Z,106.03
2018-10-18T14:50:35.308Z,16.17
2018-10-18T14:53:03.583Z,22.33
2018-10-18T14:55:32.266Z,16.33
2018-10-18T14:58:00.723Z,11.20
2018-10-18T15:00:29.144Z,9.97
2018-10-18T15:02:58.307Z,9.37
2018-10-18T15:05:26.691Z,10.80
2018-10-18T15:07:55.122Z,8.90
2018-10-18T15:10:23.585Z,7.97
2018-10-18T15:12:52.645Z,7.80
2018-10-18T15:15:21.030Z,8.63
2018-10-18T15:17:50.038Z,9.63
2018-10-18T15:20:18.486Z,10.00
2018-10-18T15:22:46.946Z,9.73
2018-10-18T15:25:16.076Z,9.57
2018-10-18T15:27:44.608Z,9.20
2018-10-18T15:30:13.488Z,8.53
2018-10-18T15:32:41.892Z,8.00
2018-10-18T15:35:11.297Z,7.90
2018-10-18T15:37:40.349Z,7.80
2018-10-18T15:40:08.966Z,7.60
2018-10-18T15:42:38.057Z,7.57
2018-10-18T15:45:07.270Z,7.80
2018-10-18T15:47:35.708Z,7.03
2018-10-18T15:50:04.563Z,7.83
2018-10-18T15:52:33.207Z,9.10
2018-10-18T15:55:01.637Z,8.77
2018-10-18T15:57:30.350Z,8.63
2018-10-18T15:59:59.779Z,8.80
2018-10-18T16:02:28.289Z,8.87
2018-10-18T16:04:57.679Z,9.07
2018-10-18T16:07:26.302Z,8.93
2018-10-18T16:09:54.707Z,8.30
2018-10-18T16:12:23.128Z,8.43
2018-10-18T16:14:51.597Z,8.50
2018-10-18T16:17:20.213Z,8.40
2018-10-18T16:19:48.595Z,7.07
2018-10-18T16:22:17.042Z,7.17
2018-10-18T16:24:45.454Z,7.57
2018-10-18T16:27:13.945Z,7.93
2018-10-18T16:29:42.568Z,7.50
2018-10-18T16:32:11.915Z,7.37
2018-10-18T16:34:40.645Z,7.60
2018-10-18T16:37:10.049Z,7.30
2018-10-18T16:39:38.692Z,7.43
2018-10-18T16:42:07.198Z,8.47
2018-10-18T16:44:35.574Z,7.90
2018-10-18T16:47:03.973Z,7.40
2018-10-18T16:49:32.435Z,7.60
2018-10-18T16:52:00.901Z,7.33
2018-10-18T16:54:29.311Z,7.87
2018-10-18T16:56:57.681Z,8.83
2018-10-18T16:59:26.130Z,7.60
2018-10-18T17:01:54.546Z,7.63
2018-10-18T17:04:23.217Z,7.70
2018-10-18T17:06:51.572Z,8.47
2018-10-18T17:09:23.428Z,7.80
2018-10-18T17:11:53.444Z,7.00
2018-10-18T17:14:21.937Z,7.00
2018-10-18T17:16:51.606Z,7.83
2018-10-18T17:19:20.033Z,8.57
2018-10-18T17:21:48.419Z,6.77
2018-10-18T17:24:17.813Z,7.10
2018-10-18T17:26:46.210Z,7.43
2018-10-18T17:29:14.714Z,7.03
2018-10-18T17:31:44.345Z,7.43
2018-10-18T17:34:12.957Z,7.90
2018-10-18T17:36:41.359Z,8.00
2018-10-18T17:39:14.534Z,7.90
2018-10-18T17:41:43.118Z,8.70
2018-10-18T17:44:12.779Z,7.73
2018-10-18T17:46:41.147Z,8.10
2018-10-18T17:49:09.786Z,7.97
2018-10-18T17:51:41.525Z,7.40
2018-10-18T17:54:12.256Z,8.10
2018-10-18T17:56:45.033Z,7.43
2018-10-18T17:59:13.731Z,7.80
2018-10-18T18:01:42.745Z,8.60
2018-10-18T18:04:11.350Z,7.70
2018-10-18T18:06:39.876Z,7.67
2018-10-18T18:09:08.849Z,7.73
2018-10-18T18:11:37.923Z,8.10
2018-10-18T18:14:06.894Z,7.93
2018-10-18T18:16:36.312Z,8.07
2018-10-18T18:19:05.035Z,8.17
2018-10-18T18:21:34.047Z,7.83
2018-10-18T18:24:02.694Z,8.70
2018-10-18T18:26:45.074Z,8.20
2018-10-18T18:29:02.310Z,8.97
2018-10-18T18:31:31.220Z,8.83
2018-10-18T18:34:07.578Z,8.87
2018-10-18T18:36:36.416Z,10.57
2018-10-18T18:39:07.138Z,10.53
2018-10-18T18:41:36.034Z,11.80
2018-10-18T18:44:05.984Z,11.97
2018-10-18T18:46:34.671Z,15.57
2018-10-18T18:49:12.806Z,10.93
2018-10-18T18:51:41.750Z,11.23
2018-10-18T18:54:11.079Z,12.20
2018-10-18T18:56:40.102Z,11.20
2018-10-18T18:59:08.542Z,13.77
2018-10-18T19:01:37.277Z,10.60
2018-10-18T19:04:11.194Z,10.17
2018-10-18T19:06:43.490Z,9.87
2018-10-18T19:09:17.394Z,8.70
2018-10-18T19:11:46.197Z,9.43
2018-10-18T19:14:17.285Z,9.80
2018-10-18T19:16:46.111Z,10.80
2018-10-18T19:19:14.926Z,10.53
2018-10-18T19:21:43.979Z,10.50
2018-10-18T19:24:15.738Z,12.50
2018-10-18T19:26:45.365Z,10.47
2018-10-18T19:29:14.797Z,11.47
2018-10-18T19:31:45.439Z,10.27
2018-10-18T19:34:15.213Z,10.50
2018-10-18T19:39:53.875Z,10.33
2018-10-18T19:42:23.098Z,9.63
2018-10-18T19:44:58.121Z,10.57
2018-10-18T19:47:27.074Z,10.37
2018-10-18T19:49:55.860Z,10.30
2018-10-18T19:52:25.280Z,9.87
2018-10-18T19:54:54.007Z,9.90
2018-10-18T19:57:22.772Z,10.33
2018-10-18T19:59:51.670Z,10.50
2018-10-18T20:02:20.467Z,11.47
2018-10-18T20:04:49.182Z,11.10
2018-10-18T20:07:18.003Z,13.00
2018-10-18T20:09:46.904Z,10.87
2018-10-18T20:12:15.894Z,11.03
2018-10-18T20:14:44.883Z,11.03
2018-10-18T20:17:14.098Z,12.30
2018-10-18T20:19:42.885Z,12.33
2018-10-18T20:22:15.660Z,11.87
2018-10-18T20:24:44.516Z,10.73
2018-10-18T20:27:14.013Z,11.23
2018-10-18T20:29:42.927Z,11.33
2018-10-18T20:32:11.794Z,11.33
2018-10-18T20:34:40.587Z,11.00
2018-10-18T20:37:09.824Z,11.67
2018-10-18T20:39:38.688Z,11.70
2018-10-18T20:42:07.942Z,12.60
2018-10-18T20:44:36.787Z,13.47
2018-10-18T20:47:05.666Z,13.13
2018-10-18T20:49:34.742Z,13.63
2018-10-18T20:52:03.554Z,13.47
2018-10-18T20:54:32.206Z,12.57
2018-10-18T20:57:01.012Z,10.93
2018-10-18T20:59:30.025Z,12.23
2018-10-18T21:01:58.647Z,12.47
2018-10-18T21:04:27.402Z,11.90
2018-10-18T21:06:56.420Z,12.10
2018-10-18T21:09:25.298Z,11.37
2018-10-18T21:11:53.932Z,12.27
2018-10-18T21:14:23.290Z,12.00
2018-10-18T21:16:52.491Z,11.90
2018-10-18T21:19:21.199Z,11.60
2018-10-18T21:21:50.141Z,11.00
2018-10-18T21:24:18.832Z,12.13
2018-10-18T21:26:47.430Z,11.27
2018-10-18T21:29:16.240Z,12.50
2018-10-18T21:31:44.893Z,12.73
2018-10-18T21:34:15.155Z,13.33
2018-10-18T21:36:44.188Z,12.10
2018-10-18T21:39:12.999Z,10.80
2018-10-18T21:41:41.798Z,10.37
2018-10-18T21:44:11.398Z,10.27
2018-10-18T21:46:40.358Z,10.73
2018-10-18T21:49:22.751Z,10.10
2018-10-18T21:51:54.894Z,10.50
2018-10-18T21:54:24.690Z,10.40
2018-10-18T21:56:53.169Z,10.13
2018-10-18T21:59:21.642Z,11.40
2018-10-18T22:01:50.130Z,11.33
2018-10-18T22:04:18.708Z,11.70
2018-10-18T22:06:48.256Z,10.80
2018-10-18T22:09:17.224Z,10.77
2018-10-18T22:11:45.795Z,10.43
2018-10-18T22:14:14.893Z,10.67
2018-10-18T22:16:44.165Z,10.80
2018-10-18T22:19:19.266Z,10.77
2018-10-18T22:21:48.005Z,11.90
2018-10-18T22:24:17.220Z,11.90
2018-10-18T22:26:46.193Z,11.97
2018-10-18T22:29:14.745Z,13.20
2018-10-18T22:31:43.197Z,13.27
2018-10-18T22:34:11.669Z,13.07
2018-10-18T22:36:40.327Z,14.03
2018-10-18T22:39:10.212Z,14.43
2018-10-18T22:41:38.653Z,15.77
2018-10-18T22:44:07.814Z,16.13
2018-10-18T22:46:37.026Z,15.97
2018-10-18T22:49:05.875Z,16.70
2018-10-18T22:51:34.950Z,15.93
2018-10-18T22:54:03.902Z,14.67
2018-10-18T22:56:32.956Z,14.57
2018-10-18T22:59:01.970Z,14.60
2018-10-18T23:01:30.975Z,15.67
2018-10-18T23:03:59.869Z,15.43
2018-10-18T23:06:28.721Z,16.80
2018-10-18T23:08:58.749Z,17.10
2018-10-18T23:11:27.407Z,18.37
2018-10-18T23:13:56.217Z,17.80
2018-10-18T23:16:25.112Z,18.60
2018-10-18T23:18:54.313Z,17.63
2018-10-18T23:21:22.944Z,18.30
2018-10-18T23:23:51.786Z,17.73
2018-10-18T23:26:20.563Z,18.67
2018-10-18T23:28:49.235Z,17.83
2018-10-18T23:31:18.165Z,16.90
2018-10-18T23:33:46.818Z,17.47
2018-10-18T23:36:15.728Z,15.87
2018-10-18T23:38:44.360Z,15.93
2018-10-18T23:41:13.212Z,16.03
2018-10-18T23:43:41.831Z,16.63
2018-10-18T23:46:10.719Z,15.80
2018-10-18T23:48:39.758Z,16.17
2018-10-18T23:51:08.565Z,16.60
2018-10-18T23:53:37.707Z,17.80
2018-10-18T23:56:06.490Z,20.50
2018-10-18T23:58:35.283Z,20.13
